Mound, TX (76558)

3:52 AM CST on February 01, 2015 (GMT -0600)
APRSWXNET Leon Junction TX US | Change Station
CLOSE
Current Station
Personal Weather Station
Location: Flat, TX
Elevation: 759 ft
Nearby Weather Stations

Elev 759 ft 31.34 °N, 97.57 °W | Updated 57 minutes ago

Overcast
Overcast
63 °F
Feels Like 63 °F
N
1
Wind Variable Wind from South
Gusts 6.0 mph

Today
High -- | Low -- °F
--% Chance of Precip.
Yesterday
High -- | Low -- °F
Precip. -- in
7:22 AM 6:05 PM
Waxing Gibbous, 94% visible
Pressure 29.87 in
Visibility 10.0 miles
Clouds Overcast 900 ft
Dew Point 60 °F
Humidity 91%
Rainfall 0.32 in
Snow Depth Not available.
UV 0 out of 12
Pollen 7.10 out of 12
Air Quality Not available.
Flu Activity Not available.
METAR KHLR 010858Z AUTO 19009KT 10SM OVC009 16/15 A2988 RMK AO2 SLP115 T01620153 57005

More Conditions Fewer Conditions

Pressure 29.87 in
Visibility 10.0 miles
Clouds Overcast 900 ft
Dew Point 60 °F
Humidity 91%
Rainfall 0.32 in
Snow Depth Not available.
UV 0 out of 12
Pollen 7.10 out of 12
Air Quality Not available.
Flu Activity Not available.
METAR KHLR 010858Z AUTO 19009KT 10SM OVC009 16/15 A2988 RMK AO2 SLP115 T01620153 57005

More Conditions Fewer Conditions

Nowcast | as of 2:12 am CST on February 1, 2015

Scattered areas of light to moderate rain will continue through the pre-dawn hours generally east of a line from Comanche to Dallas to Sherman. One hour rainfall amounts will average around one tenth of an inch. All precipitation will move northeast around 40 mph. The remainder of North Texas will remain cloudy with patchy areas of drizzle and fog through 5 am.

×

10-Day Weather Forecast

Almanac

Astronomy

Feb. 01, 2015 Rise Set
Actual Time
Civil Twilight
Nautical Twilight
Astronomical Twilight
Moon
Length of Visible Light
Length of Day
Tomorrow will be .
, % of the Moon is Illuminated

Today's Extremes

State Highs State Lows

Community

WunderPhotos

Upload Photos

1,792,354 photos uploaded!

WunderBlogs® & News

Nearby

Air Quality

  Air Quality AQ Index Pollutant
Not available.

Snow Depth

Station Depth Elevation

Earthquake Activity

City Distance Mag. Time & Date
Minimum magnitude displayed is 2.5.

Coastal Water Temperatures

Place Temperature

Nearby Weather Stations